createdAt,value
2018-06-14T00:00:53.507Z,14.45
2018-06-14T00:03:22.674Z,14.42
2018-06-14T00:05:51.947Z,14.36
2018-06-14T00:08:21.140Z,14.34
2018-06-14T00:10:50.338Z,14.32
2018-06-14T00:13:19.488Z,14.30
2018-06-14T00:15:48.625Z,14.28
2018-06-14T00:18:17.793Z,14.27
2018-06-14T00:20:46.935Z,14.24
2018-06-14T00:23:16.079Z,14.22
2018-06-14T00:25:45.270Z,14.20
2018-06-14T00:28:14.386Z,14.16
2018-06-14T00:30:43.551Z,14.11
2018-06-14T00:33:12.771Z,14.13
2018-06-14T00:35:42.015Z,14.08
2018-06-14T00:38:11.123Z,14.01
2018-06-14T00:40:40.324Z,13.97
2018-06-14T00:43:09.524Z,13.94
2018-06-14T00:45:38.690Z,13.93
2018-06-14T00:48:07.860Z,13.88
2018-06-14T00:50:37.162Z,13.87
2018-06-14T00:53:06.276Z,13.86
2018-06-14T00:55:35.515Z,13.86
2018-06-14T00:58:04.646Z,13.86
2018-06-14T01:00:33.786Z,13.84
2018-06-14T01:03:02.892Z,13.80
2018-06-14T01:05:32.052Z,13.79
2018-06-14T01:08:01.122Z,13.78
2018-06-14T01:10:30.303Z,13.74
2018-06-14T01:12:59.456Z,13.72
2018-06-14T01:15:28.732Z,13.68
2018-06-14T01:17:57.902Z,13.66
2018-06-14T01:20:27.064Z,13.65
2018-06-14T01:22:56.217Z,13.61
2018-06-14T01:25:25.389Z,13.58
2018-06-14T01:27:54.687Z,13.56
2018-06-14T01:30:23.994Z,13.52
2018-06-14T01:32:53.180Z,13.52
2018-06-14T01:35:22.427Z,13.52
2018-06-14T01:38:02.853Z,13.48
2018-06-14T01:40:32.015Z,13.46
2018-06-14T01:43:01.234Z,13.43
2018-06-14T01:45:30.416Z,13.44
2018-06-14T01:47:59.706Z,13.40
2018-06-14T01:50:28.863Z,13.40
2018-06-14T01:52:58.097Z,13.40
2018-06-14T01:55:30.942Z,13.37
2018-06-14T01:58:00.114Z,13.34
2018-06-14T02:00:29.511Z,13.31
2018-06-14T02:02:58.739Z,13.28
2018-06-14T02:05:28.297Z,13.26
2018-06-14T02:07:57.458Z,13.18
2018-06-14T02:10:26.990Z,13.16
2018-06-14T02:12:56.083Z,13.14
2018-06-14T02:15:27.704Z,13.13
2018-06-14T02:17:57.352Z,13.06
2018-06-14T02:20:26.595Z,12.98
2018-06-14T02:22:55.719Z,12.95
2018-06-14T02:25:25.133Z,12.93
2018-06-14T02:27:54.309Z,12.89
2018-06-14T02:30:23.511Z,12.85
2018-06-14T02:32:52.796Z,12.82
2018-06-14T02:35:22.036Z,12.76
2018-06-14T02:37:51.191Z,12.67
2018-06-14T02:40:20.337Z,12.65
2018-06-14T02:42:50.194Z,12.61
2018-06-14T02:45:19.381Z,12.56
2018-06-14T02:47:48.597Z,12.52
2018-06-14T02:50:17.742Z,12.48
2018-06-14T02:52:46.971Z,12.48
2018-06-14T02:55:16.150Z,12.45
2018-06-14T02:57:45.623Z,12.48
2018-06-14T03:00:15.090Z,12.48
2018-06-14T03:02:44.800Z,12.45
2018-06-14T03:05:14.066Z,12.43
2018-06-14T03:07:43.336Z,12.41
2018-06-14T03:10:12.569Z,12.42
2018-06-14T03:12:41.816Z,12.40
2018-06-14T03:15:10.989Z,12.37
2018-06-14T03:17:40.120Z,12.41
2018-06-14T03:20:09.453Z,12.40
2018-06-14T03:22:38.696Z,12.38
2018-06-14T03:25:07.896Z,12.36
2018-06-14T03:27:55.033Z,12.35
2018-06-14T03:30:26.989Z,12.34
2018-06-14T03:32:56.271Z,12.38
2018-06-14T03:35:41.280Z,12.36
2018-06-14T03:38:13.483Z,12.38
2018-06-14T03:40:42.733Z,12.39
2018-06-14T03:43:11.933Z,12.40
2018-06-14T03:45:41.056Z,12.40
2018-06-14T03:48:10.212Z,12.42
2018-06-14T03:50:39.384Z,12.42
2018-06-14T03:53:08.598Z,12.43
2018-06-14T03:55:38.213Z,12.46
2018-06-14T03:58:07.333Z,12.50
2018-06-14T04:00:36.515Z,12.50
2018-06-14T04:03:05.782Z,12.50
2018-06-14T04:05:34.987Z,12.53
2018-06-14T04:08:04.151Z,12.53
2018-06-14T04:10:33.477Z,12.53
2018-06-14T04:13:02.629Z,12.56
2018-06-14T04:15:31.768Z,12.60
2018-06-14T04:18:03.713Z,12.61
2018-06-14T04:20:34.454Z,12.66
2018-06-14T04:23:03.662Z,12.70
2018-06-14T04:25:32.856Z,12.73
2018-06-14T04:28:02.214Z,12.75
2018-06-14T04:30:31.368Z,12.78
2018-06-14T04:33:00.568Z,12.84
2018-06-14T04:35:29.937Z,12.83
2018-06-14T04:37:59.151Z,12.83
2018-06-14T04:40:28.369Z,12.87
2018-06-14T04:42:57.487Z,12.92
2018-06-14T04:45:26.661Z,12.94
2018-06-14T04:47:55.824Z,12.98
2018-06-14T04:50:24.961Z,13.01
2018-06-14T04:52:54.242Z,13.07
2018-06-14T04:55:23.461Z,13.13
2018-06-14T04:57:52.628Z,13.18
2018-06-14T05:00:21.964Z,13.22
2018-06-14T05:02:51.122Z,13.27
2018-06-14T05:05:20.376Z,13.30
2018-06-14T05:07:49.507Z,13.35
2018-06-14T05:10:18.663Z,13.39
2018-06-14T05:12:47.842Z,13.45
2018-06-14T05:15:17.080Z,13.51
2018-06-14T05:17:46.282Z,13.61
2018-06-14T05:20:15.423Z,13.64
2018-06-14T05:22:44.733Z,13.69
2018-06-14T05:25:14.081Z,13.72
2018-06-14T05:27:43.188Z,13.77
2018-06-14T05:30:12.359Z,13.80
2018-06-14T05:32:41.541Z,13.85
2018-06-14T05:35:10.768Z,13.84
2018-06-14T05:37:39.893Z,13.84
2018-06-14T05:40:09.085Z,13.82
2018-06-14T05:42:38.188Z,13.85
2018-06-14T05:45:07.384Z,13.88
2018-06-14T05:47:36.655Z,13.93
2018-06-14T05:50:05.812Z,13.96
2018-06-14T05:52:35.181Z,14.02
2018-06-14T05:55:04.496Z,14.08
2018-06-14T05:57:33.846Z,14.16
2018-06-14T06:00:03.413Z,14.19
2018-06-14T06:02:32.719Z,14.24
2018-06-14T06:05:01.966Z,14.24
2018-06-14T06:07:31.125Z,14.27
2018-06-14T06:10:00.370Z,14.31
2018-06-14T06:12:29.532Z,14.36
2018-06-14T06:14:58.759Z,14.41
2018-06-14T06:17:27.874Z,14.51
2018-06-14T06:19:57.055Z,14.57
2018-06-14T06:22:26.571Z,14.60
2018-06-14T06:24:55.967Z,14.80
2018-06-14T06:27:25.116Z,14.89
2018-06-14T06:29:54.374Z,15.12
2018-06-14T06:32:23.984Z,15.21
2018-06-14T06:34:53.136Z,15.32
2018-06-14T06:37:22.343Z,15.40
2018-06-14T06:39:51.531Z,15.49
2018-06-14T06:42:20.688Z,15.68
2018-06-14T06:44:49.908Z,15.70
2018-06-14T06:47:19.237Z,15.76
2018-06-14T06:49:48.566Z,15.84
2018-06-14T06:52:17.690Z,15.95
2018-06-14T06:54:46.901Z,15.91
2018-06-14T06:57:16.115Z,15.95
2018-06-14T06:59:45.275Z,16.00
2018-06-14T07:02:14.542Z,16.03
2018-06-14T07:04:43.703Z,16.10
2018-06-14T07:07:12.845Z,16.21
2018-06-14T07:09:41.940Z,16.35
2018-06-14T07:12:11.230Z,16.51
2018-06-14T07:14:41.340Z,16.60
2018-06-14T07:17:10.561Z,16.62
2018-06-14T07:19:39.769Z,16.62
2018-06-14T07:22:09.375Z,16.81
2018-06-14T07:24:38.533Z,16.83
2018-06-14T07:27:07.784Z,17.00
2018-06-14T07:29:37.385Z,17.05
2018-06-14T07:32:06.928Z,17.00
2018-06-14T07:34:36.092Z,17.00
2018-06-14T07:37:05.240Z,17.10
2018-06-14T07:39:35.158Z,17.13
2018-06-14T07:42:04.294Z,17.15
2018-06-14T07:44:33.544Z,17.13
2018-06-14T07:47:02.708Z,17.09
2018-06-14T07:49:31.874Z,17.17
2018-06-14T07:52:01.045Z,17.27
2018-06-14T07:54:30.161Z,17.43
2018-06-14T07:56:59.329Z,17.55
2018-06-14T07:59:28.478Z,17.55
2018-06-14T08:01:57.652Z,17.59
2018-06-14T08:04:26.804Z,17.70
2018-06-14T08:06:56.090Z,17.78
2018-06-14T08:09:25.299Z,17.77
2018-06-14T08:11:55.077Z,17.83
2018-06-14T08:14:24.201Z,17.90
2018-06-14T08:16:53.387Z,17.89
2018-06-14T08:19:22.509Z,17.94
2018-06-14T08:21:51.640Z,18.01
2018-06-14T08:24:20.839Z,18.09
2018-06-14T08:26:50.023Z,18.20
2018-06-14T08:29:19.229Z,18.34
2018-06-14T08:31:48.490Z,18.48
2018-06-14T08:34:18.472Z,18.60
2018-06-14T08:36:47.618Z,18.74
2018-06-14T08:39:16.725Z,18.80
2018-06-14T08:41:46.748Z,18.96
2018-06-14T08:44:15.885Z,19.18
2018-06-14T08:46:45.044Z,19.53
2018-06-14T08:49:14.863Z,19.77
2018-06-14T08:51:43.988Z,19.82
2018-06-14T08:54:13.208Z,19.73
2018-06-14T08:56:42.456Z,19.78
2018-06-14T08:59:11.608Z,19.96
2018-06-14T09:01:41.597Z,20.00
2018-06-14T09:04:10.866Z,19.98
2018-06-14T09:06:40.016Z,19.86
2018-06-14T09:09:10.312Z,19.84
2018-06-14T09:11:40.376Z,19.74
2018-06-14T09:14:10.120Z,19.67
2018-06-14T09:16:40.004Z,19.72
2018-06-14T09:19:09.147Z,19.90
2018-06-14T09:21:38.392Z,19.90
2018-06-14T09:24:07.521Z,19.81
2018-06-14T09:26:36.927Z,19.89
2018-06-14T09:29:06.200Z,20.12
2018-06-14T09:31:35.490Z,20.41
2018-06-14T09:34:04.802Z,20.60
2018-06-14T09:36:34.627Z,20.56
2018-06-14T09:39:04.991Z,20.53
2018-06-14T09:41:34.162Z,20.50
2018-06-14T09:44:03.302Z,20.43
2018-06-14T09:46:32.464Z,20.38
2018-06-14T09:49:06.864Z,20.17
2018-06-14T09:51:36.064Z,20.06
2018-06-14T09:54:05.344Z,19.98
2018-06-14T09:56:34.536Z,20.00
2018-06-14T09:59:03.772Z,20.10
2018-06-14T10:01:33.021Z,20.33
2018-06-14T10:04:02.151Z,20.60
2018-06-14T10:06:31.329Z,20.68
2018-06-14T10:09:00.475Z,20.80
2018-06-14T10:11:29.752Z,20.88
2018-06-14T10:13:58.919Z,21.12
2018-06-14T10:16:28.864Z,21.41
2018-06-14T10:18:58.064Z,21.38
2018-06-14T10:21:27.185Z,21.45
2018-06-14T10:23:56.450Z,21.31
2018-06-14T10:26:25.667Z,21.49
2018-06-14T10:28:54.866Z,21.57
2018-06-14T10:31:24.025Z,21.90
2018-06-14T10:33:53.184Z,22.00
2018-06-14T10:36:22.397Z,22.28
2018-06-14T10:38:51.672Z,22.23
2018-06-14T10:41:20.812Z,22.04
2018-06-14T10:43:50.048Z,21.90
2018-06-14T10:46:19.282Z,21.94
2018-06-14T10:48:48.448Z,22.02
2018-06-14T10:51:17.613Z,22.11
2018-06-14T10:53:46.771Z,22.19
2018-06-14T10:56:16.072Z,22.07
2018-06-14T10:58:45.253Z,22.24
2018-06-14T11:01:14.531Z,22.28
2018-06-14T11:03:44.048Z,22.26
2018-06-14T11:06:13.193Z,22.28
2018-06-14T11:08:42.416Z,22.51
2018-06-14T11:11:11.614Z,22.58
2018-06-14T11:13:40.690Z,22.59
2018-06-14T11:16:09.866Z,22.73
2018-06-14T11:18:39.156Z,22.89
2018-06-14T11:21:08.293Z,22.85
2018-06-14T11:23:37.422Z,23.02
2018-06-14T11:26:06.614Z,23.06
2018-06-14T11:28:35.739Z,23.10
2018-06-14T11:31:04.929Z,22.94
2018-06-14T11:33:34.100Z,22.93
2018-06-14T11:36:03.275Z,22.98
2018-06-14T11:38:32.373Z,22.99
2018-06-14T11:41:01.521Z,23.11
2018-06-14T11:43:30.651Z,23.23
2018-06-14T11:45:59.873Z,23.21
2018-06-14T11:48:29.059Z,23.27
2018-06-14T11:50:58.262Z,23.56
2018-06-14T11:53:27.450Z,23.52
2018-06-14T11:55:56.651Z,23.34
2018-06-14T11:58:25.819Z,23.56
2018-06-14T12:00:54.971Z,23.72
2018-06-14T12:03:24.144Z,23.87
2018-06-14T12:05:53.271Z,23.80
2018-06-14T12:08:22.523Z,23.83
2018-06-14T12:10:51.680Z,23.78
2018-06-14T12:13:20.985Z,23.49
2018-06-14T12:15:50.128Z,23.23
2018-06-14T12:18:19.422Z,23.26
2018-06-14T12:20:48.556Z,23.40
2018-06-14T12:23:17.706Z,23.60
2018-06-14T12:25:46.861Z,23.86
2018-06-14T12:28:16.040Z,23.89
2018-06-14T12:30:45.289Z,23.66
2018-06-14T12:33:14.415Z,23.44
2018-06-14T12:35:43.574Z,23.43
2018-06-14T12:38:12.747Z,23.47
2018-06-14T12:40:41.889Z,23.73
2018-06-14T12:43:11.142Z,23.81
2018-06-14T12:45:40.265Z,24.07
2018-06-14T12:48:09.479Z,24.06
2018-06-14T12:50:38.629Z,24.20
2018-06-14T12:53:07.723Z,24.33
2018-06-14T12:55:36.983Z,24.55
2018-06-14T12:58:06.099Z,24.40
2018-06-14T13:00:35.266Z,24.17
2018-06-14T13:03:04.636Z,23.94
2018-06-14T13:05:33.880Z,24.00
2018-06-14T13:08:03.076Z,23.83
2018-06-14T13:10:32.278Z,23.84
2018-06-14T13:13:01.443Z,23.83
2018-06-14T13:15:30.564Z,23.82
2018-06-14T13:17:59.740Z,23.92
2018-06-14T13:20:28.855Z,23.97
2018-06-14T13:22:58.052Z,23.91
2018-06-14T13:25:27.216Z,24.14
2018-06-14T13:27:56.472Z,24.25
2018-06-14T13:30:25.669Z,24.08
2018-06-14T13:32:54.821Z,23.97
2018-06-14T13:35:24.073Z,23.94
2018-06-14T13:40:21.575Z,23.73
2018-06-14T13:42:50.935Z,23.48
2018-06-14T13:45:20.123Z,23.54
2018-06-14T13:47:49.339Z,23.71
2018-06-14T13:50:18.472Z,23.76
2018-06-14T13:52:47.644Z,23.80
2018-06-14T13:55:16.767Z,23.62
2018-06-14T13:57:45.967Z,23.41
2018-06-14T14:00:15.044Z,23.21
2018-06-14T14:02:44.153Z,23.21
2018-06-14T14:05:13.424Z,23.08
2018-06-14T14:07:42.521Z,22.99
2018-06-14T14:10:11.734Z,22.93
2018-06-14T14:12:40.849Z,22.86
2018-06-14T14:15:10.037Z,22.85
2018-06-14T14:17:39.162Z,22.87
2018-06-14T14:20:08.695Z,22.79
2018-06-14T14:22:37.832Z,22.81
2018-06-14T14:25:07.063Z,22.74
2018-06-14T14:27:36.223Z,22.68
2018-06-14T14:30:05.420Z,22.64
2018-06-14T14:32:34.693Z,22.75
2018-06-14T14:35:04.472Z,22.59
2018-06-14T14:37:34.005Z,22.51
2018-06-14T14:40:03.215Z,22.40
2018-06-14T14:42:32.334Z,22.41
2018-06-14T14:45:01.574Z,22.38
2018-06-14T14:47:30.770Z,22.30
2018-06-14T14:50:00.065Z,21.98
2018-06-14T14:52:29.470Z,21.67
2018-06-14T14:54:58.670Z,21.49
2018-06-14T14:57:28.974Z,21.29
2018-06-14T14:59:58.191Z,21.23
2018-06-14T15:02:27.394Z,21.06
2018-06-14T15:04:56.520Z,21.01
2018-06-14T15:07:25.684Z,20.93
2018-06-14T15:09:54.825Z,20.81
2018-06-14T15:12:24.068Z,20.62
2018-06-14T15:14:53.193Z,20.45
2018-06-14T15:17:22.319Z,20.21
2018-06-14T15:19:51.543Z,20.07
2018-06-14T15:22:20.698Z,20.00
2018-06-14T15:24:49.853Z,20.00
2018-06-14T15:27:19.003Z,20.02
2018-06-14T15:29:48.253Z,20.00
2018-06-14T15:32:17.516Z,19.86
2018-06-14T15:34:46.725Z,19.80
2018-06-14T15:37:15.906Z,19.65
2018-06-14T15:39:45.071Z,19.66
2018-06-14T15:42:14.461Z,19.70
2018-06-14T15:44:43.649Z,19.59
2018-06-14T15:47:12.787Z,19.61
2018-06-14T15:49:41.921Z,19.62
2018-06-14T15:52:11.079Z,19.71
2018-06-14T15:54:40.353Z,19.67
2018-06-14T15:57:09.528Z,19.60
2018-06-14T15:59:38.707Z,19.44
2018-06-14T16:02:07.864Z,19.36
2018-06-14T16:04:36.996Z,19.30
2018-06-14T16:07:06.206Z,19.22
2018-06-14T16:09:35.363Z,19.10
2018-06-14T16:12:04.570Z,18.95
2018-06-14T16:14:33.728Z,18.85
2018-06-14T16:17:02.962Z,18.69
2018-06-14T16:19:32.128Z,18.61
2018-06-14T16:22:02.310Z,18.43
2018-06-14T16:24:32.016Z,18.29
2018-06-14T16:27:01.197Z,18.24
2018-06-14T16:29:30.340Z,18.16
2018-06-14T16:31:59.597Z,18.12
2018-06-14T16:34:28.801Z,18.09
2018-06-14T16:36:57.984Z,18.06
2018-06-14T16:39:27.277Z,18.07
2018-06-14T16:41:56.381Z,18.09
2018-06-14T16:44:25.718Z,18.12
2018-06-14T16:46:54.894Z,18.13
2018-06-14T16:49:24.063Z,18.18
2018-06-14T16:51:53.264Z,18.17
2018-06-14T16:54:22.429Z,18.22
2018-06-14T16:56:51.704Z,18.27
2018-06-14T16:59:20.944Z,18.29
2018-06-14T17:01:50.206Z,18.32
2018-06-14T17:04:19.506Z,18.32
2018-06-14T17:06:48.710Z,18.39
2018-06-14T17:09:17.963Z,18.43
2018-06-14T17:11:47.065Z,18.43
2018-06-14T17:14:16.217Z,18.43
2018-06-14T17:16:45.576Z,18.45
2018-06-14T17:19:14.882Z,18.47
2018-06-14T17:21:44.154Z,18.52
2018-06-14T17:24:13.497Z,18.55
2018-06-14T17:26:42.788Z,18.53
2018-06-14T17:29:12.091Z,18.47
2018-06-14T17:31:41.431Z,18.46
2018-06-14T17:34:11.382Z,18.49
2018-06-14T17:36:40.606Z,18.47
2018-06-14T17:39:09.923Z,18.46
2018-06-14T17:41:39.185Z,18.46
2018-06-14T17:44:08.448Z,18.53
2018-06-14T17:46:37.792Z,18.51
2018-06-14T17:49:07.040Z,18.52
2018-06-14T17:51:36.304Z,18.56
2018-06-14T17:54:05.417Z,18.63
2018-06-14T17:56:34.577Z,18.64
2018-06-14T17:59:03.801Z,18.69
2018-06-14T18:01:32.984Z,18.75
2018-06-14T18:04:02.301Z,18.80
2018-06-14T18:06:31.506Z,18.78
2018-06-14T18:09:00.722Z,18.76
2018-06-14T18:11:29.890Z,18.77
2018-06-14T18:13:59.111Z,18.88
2018-06-14T18:16:28.282Z,18.93
2018-06-14T18:18:57.452Z,19.04
2018-06-14T18:21:26.693Z,19.07
2018-06-14T18:23:55.876Z,19.14
2018-06-14T18:26:25.425Z,19.21
2018-06-14T18:28:54.644Z,19.23
2018-06-14T18:31:23.846Z,19.24
2018-06-14T18:33:53.049Z,19.26
2018-06-14T18:36:22.269Z,19.26
2018-06-14T18:38:51.402Z,19.31
2018-06-14T18:41:20.662Z,19.30
2018-06-14T18:43:49.869Z,19.34
2018-06-14T18:46:19.064Z,19.31
2018-06-14T18:48:48.195Z,19.26
2018-06-14T18:51:17.969Z,19.26
2018-06-14T18:53:47.175Z,19.24
2018-06-14T18:56:16.332Z,19.20
2018-06-14T18:58:45.460Z,19.19
2018-06-14T19:01:14.590Z,19.18
2018-06-14T19:03:43.906Z,19.16
2018-06-14T19:06:13.070Z,19.11
2018-06-14T19:08:42.207Z,19.08
2018-06-14T19:11:11.342Z,19.02
2018-06-14T19:13:40.498Z,18.99
2018-06-14T19:16:09.594Z,19.00
2018-06-14T19:18:38.768Z,18.99
2018-06-14T19:21:08.032Z,18.93
2018-06-14T19:23:37.421Z,18.92
2018-06-14T19:26:06.650Z,18.92
2018-06-14T19:28:35.830Z,18.88
2018-06-14T19:31:05.386Z,18.86
2018-06-14T19:33:34.525Z,18.82
2018-06-14T19:36:03.808Z,18.84
2018-06-14T19:38:33.092Z,18.81
2018-06-14T19:41:02.437Z,18.76
2018-06-14T19:43:31.639Z,18.76
2018-06-14T19:46:00.904Z,18.74
2018-06-14T19:48:30.208Z,18.73
2018-06-14T19:50:59.430Z,18.75
2018-06-14T19:53:28.611Z,18.72
2018-06-14T19:55:57.843Z,18.72
2018-06-14T19:58:26.990Z,18.68
2018-06-14T20:00:56.237Z,18.70
2018-06-14T20:03:25.397Z,18.67
2018-06-14T20:05:54.554Z,18.65
2018-06-14T20:08:23.759Z,18.59
2018-06-14T20:10:52.932Z,18.56
2018-06-14T20:13:22.079Z,18.56
2018-06-14T20:15:51.297Z,18.59
2018-06-14T20:18:20.440Z,18.56
2018-06-14T20:20:49.668Z,18.57
2018-06-14T20:23:18.850Z,18.55
2018-06-14T20:25:48.029Z,18.50
2018-06-14T20:28:17.276Z,18.46
2018-06-14T20:30:46.484Z,18.47
2018-06-14T20:33:22.262Z,18.45
2018-06-14T20:35:51.941Z,18.46
2018-06-14T20:38:21.479Z,18.47
2018-06-14T20:40:50.652Z,18.48
2018-06-14T20:43:19.751Z,18.47
2018-06-14T20:45:49.215Z,18.47
2018-06-14T20:48:19.033Z,18.48
2018-06-14T20:50:48.260Z,18.44
2018-06-14T20:53:17.361Z,18.40
2018-06-14T20:55:46.501Z,18.39
2018-06-14T20:58:15.735Z,18.35
2018-06-14T21:00:44.890Z,18.26
2018-06-14T21:03:14.066Z,18.19
2018-06-14T21:05:43.269Z,18.11
2018-06-14T21:08:12.453Z,18.06
2018-06-14T21:10:41.716Z,18.05
2018-06-14T21:13:17.242Z,17.97
2018-06-14T21:15:46.815Z,17.87
2018-06-14T21:18:16.004Z,17.82
2018-06-14T21:20:45.167Z,17.83
2018-06-14T21:23:14.411Z,17.85
2018-06-14T21:25:43.585Z,17.82
2018-06-14T21:28:12.772Z,17.72
2018-06-14T21:30:41.900Z,17.72
2018-06-14T21:33:11.221Z,17.68
2018-06-14T21:35:40.526Z,17.70
2018-06-14T21:38:09.720Z,17.67
2018-06-14T21:40:38.828Z,17.67
2018-06-14T21:43:08.102Z,17.62
2018-06-14T21:45:37.284Z,17.62
2018-06-14T21:48:06.423Z,17.63
2018-06-14T21:50:35.691Z,17.56
2018-06-14T21:53:04.952Z,17.57
2018-06-14T21:55:34.091Z,17.57
2018-06-14T21:58:03.349Z,17.57
2018-06-14T22:00:32.614Z,17.59
2018-06-14T22:03:07.158Z,17.55
2018-06-14T22:05:36.372Z,17.52
2018-06-14T22:08:05.582Z,17.50
2018-06-14T22:10:34.718Z,17.57
2018-06-14T22:13:03.908Z,17.56
2018-06-14T22:15:33.129Z,17.53
2018-06-14T22:18:02.354Z,17.53
2018-06-14T22:20:31.599Z,17.55
2018-06-14T22:23:00.805Z,17.58
2018-06-14T22:25:29.972Z,17.59
2018-06-14T22:27:59.169Z,17.63
2018-06-14T22:30:28.366Z,17.63
2018-06-14T22:33:08.749Z,17.63
2018-06-14T22:35:38.561Z,17.64
2018-06-14T22:38:07.833Z,17.61
2018-06-14T22:40:37.400Z,17.60
2018-06-14T22:43:06.612Z,17.63
2018-06-14T22:45:35.833Z,17.63
2018-06-14T22:48:05.110Z,17.60
2018-06-14T22:50:45.421Z,17.56
2018-06-14T22:53:14.595Z,17.58
2018-06-14T22:55:43.789Z,17.57
2018-06-14T22:58:12.986Z,17.58
2018-06-14T23:01:37.640Z,17.59
2018-06-14T23:04:07.946Z,17.57
2018-06-14T23:06:37.142Z,17.55
2018-06-14T23:10:16.499Z,17.51
2018-06-14T23:12:45.907Z,17.57
2018-06-14T23:15:16.115Z,17.56
2018-06-14T23:17:46.249Z,17.54
2018-06-14T23:20:16.662Z,17.53
2018-06-14T23:22:47.096Z,17.49
2018-06-14T23:25:17.020Z,17.48
2018-06-14T23:27:46.233Z,17.47
2018-06-14T23:30:15.532Z,17.45
2018-06-14T23:32:44.909Z,17.40
2018-06-14T23:35:14.174Z,17.41
2018-06-14T23:37:43.542Z,17.37
2018-06-14T23:40:12.867Z,17.39
2018-06-14T23:42:42.036Z,17.41
2018-06-14T23:45:11.167Z,17.40
2018-06-14T23:47:40.388Z,17.40
2018-06-14T23:50:09.558Z,17.38
2018-06-14T23:52:41.473Z,17.38
2018-06-14T23:55:11.196Z,17.36
2018-06-14T23:57:40.397Z,17.32
